sensor_id;sensor_type;location;lat;lon;timestamp;temperature;humidity
20672;DHT22;10495;50.922;4.760;2022-08-04T00:01:43;24.10;60.30
20672;DHT22;10495;50.922;4.760;2022-08-04T00:07:07;24.00;61.10
20672;DHT22;10495;50.922;4.760;2022-08-04T00:09:51;24.00;61.30
20672;DHT22;10495;50.922;4.760;2022-08-04T00:12:20;24.00;61.70
20672;DHT22;10495;50.922;4.760;2022-08-04T00:14:49;23.90;61.90
20672;DHT22;10495;50.922;4.760;2022-08-04T00:17:20;24.00;61.90
20672;DHT22;10495;50.922;4.760;2022-08-04T00:19:50;24.00;62.40
20672;DHT22;10495;50.922;4.760;2022-08-04T00:22:18;23.90;63.10
20672;DHT22;10495;50.922;4.760;2022-08-04T00:24:46;23.80;63.60
20672;DHT22;10495;50.922;4.760;2022-08-04T00:27:12;23.80;64.20
20672;DHT22;10495;50.922;4.760;2022-08-04T00:29:39;23.80;63.80
20672;DHT22;10495;50.922;4.760;2022-08-04T00:32:06;23.80;63.80
20672;DHT22;10495;50.922;4.760;2022-08-04T00:34:33;23.70;64.20
20672;DHT22;10495;50.922;4.760;2022-08-04T00:36:59;23.70;64.60
20672;DHT22;10495;50.922;4.760;2022-08-04T00:39:25;23.70;64.40
20672;DHT22;10495;50.922;4.760;2022-08-04T00:44:49;23.60;65.00
20672;DHT22;10495;50.922;4.760;2022-08-04T00:50:09;23.40;66.40
20672;DHT22;10495;50.922;4.760;2022-08-04T00:55:27;23.20;67.20
20672;DHT22;10495;50.922;4.760;2022-08-04T01:00:46;23.10;67.90
20672;DHT22;10495;50.922;4.760;2022-08-04T01:03:32;23.10;67.50
20672;DHT22;10495;50.922;4.760;2022-08-04T01:14:23;23.00;68.00
20672;DHT22;10495;50.922;4.760;2022-08-04T01:16:52;22.90;68.60
20672;DHT22;10495;50.922;4.760;2022-08-04T01:19:40;22.80;69.30
20672;DHT22;10495;50.922;4.760;2022-08-04T01:23:08;22.70;69.70
20672;DHT22;10495;50.922;4.760;2022-08-04T01:30:54;22.50;71.00
20672;DHT22;10495;50.922;4.760;2022-08-04T01:33:21;22.30;71.60
20672;DHT22;10495;50.922;4.760;2022-08-04T01:35:50;22.40;71.30
20672;DHT22;10495;50.922;4.760;2022-08-04T01:40:54;22.50;70.80
20672;DHT22;10495;50.922;4.760;2022-08-04T01:43:22;22.30;72.10
20672;DHT22;10495;50.922;4.760;2022-08-04T01:45:50;22.20;72.80
20672;DHT22;10495;50.922;4.760;2022-08-04T01:48:17;22.20;72.80
20672;DHT22;10495;50.922;4.760;2022-08-04T01:50:51;22.20;73.50
20672;DHT22;10495;50.922;4.760;2022-08-04T01:53:19;22.20;73.50
20672;DHT22;10495;50.922;4.760;2022-08-04T01:55:47;22.30;73.70
20672;DHT22;10495;50.922;4.760;2022-08-04T01:58:18;22.30;73.60
20672;DHT22;10495;50.922;4.760;2022-08-04T02:00:56;22.30;74.10
20672;DHT22;10495;50.922;4.760;2022-08-04T02:03:24;22.50;74.00
20672;DHT22;10495;50.922;4.760;2022-08-04T02:05:54;22.50;73.60
20672;DHT22;10495;50.922;4.760;2022-08-04T02:09:20;22.60;73.50
20672;DHT22;10495;50.922;4.760;2022-08-04T02:11:25;22.60;73.20
20672;DHT22;10495;50.922;4.760;2022-08-04T02:13:56;22.60;73.20
20672;DHT22;10495;50.922;4.760;2022-08-04T02:21:40;22.50;74.40
20672;DHT22;10495;50.922;4.760;2022-08-04T02:24:07;22.60;74.00
20672;DHT22;10495;50.922;4.760;2022-08-04T02:26:34;22.50;73.80
20672;DHT22;10495;50.922;4.760;2022-08-04T02:32:03;22.50;73.80
20672;DHT22;10495;50.922;4.760;2022-08-04T02:37:31;22.60;73.30
20672;DHT22;10495;50.922;4.760;2022-08-04T02:40:01;22.50;73.00
20672;DHT22;10495;50.922;4.760;2022-08-04T02:42:29;22.50;73.00
20672;DHT22;10495;50.922;4.760;2022-08-04T02:44:57;22.50;73.00
20672;DHT22;10495;50.922;4.760;2022-08-04T02:47:25;22.40;74.20
20672;DHT22;10495;50.922;4.760;2022-08-04T02:49:52;22.40;74.10
20672;DHT22;10495;50.922;4.760;2022-08-04T02:52:19;22.30;73.90
20672;DHT22;10495;50.922;4.760;2022-08-04T02:54:48;22.40;73.80
20672;DHT22;10495;50.922;4.760;2022-08-04T02:57:16;22.40;73.50
20672;DHT22;10495;50.922;4.760;2022-08-04T03:03:14;22.40;73.20
20672;DHT22;10495;50.922;4.760;2022-08-04T03:08:54;22.30;73.70
20672;DHT22;10495;50.922;4.760;2022-08-04T03:14:18;22.20;73.60
20672;DHT22;10495;50.922;4.760;2022-08-04T03:19:41;22.20;73.30
20672;DHT22;10495;50.922;4.760;2022-08-04T03:25:10;22.30;73.00
20672;DHT22;10495;50.922;4.760;2022-08-04T03:42:07;21.90;73.20
20672;DHT22;10495;50.922;4.760;2022-08-04T03:47:41;21.90;73.10
20672;DHT22;10495;50.922;4.760;2022-08-04T03:50:21;22.00;73.10
20672;DHT22;10495;50.922;4.760;2022-08-04T04:32:03;21.60;76.80
20672;DHT22;10495;50.922;4.760;2022-08-04T04:34:34;21.60;77.10
20672;DHT22;10495;50.922;4.760;2022-08-04T04:45:40;21.70;78.00
20672;DHT22;10495;50.922;4.760;2022-08-04T04:54:33;21.80;78.30
20672;DHT22;10495;50.922;4.760;2022-08-04T04:56:50;21.90;78.40
20672;DHT22;10495;50.922;4.760;2022-08-04T04:59:21;22.00;78.30
20672;DHT22;10495;50.922;4.760;2022-08-04T05:15:07;22.40;78.10
20672;DHT22;10495;50.922;4.760;2022-08-04T05:17:38;22.50;78.10
20672;DHT22;10495;50.922;4.760;2022-08-04T05:20:20;22.60;77.90
20672;DHT22;10495;50.922;4.760;2022-08-04T05:23:01;22.70;77.70
20672;DHT22;10495;50.922;4.760;2022-08-04T05:28:21;22.90;77.50
20672;DHT22;10495;50.922;4.760;2022-08-04T05:30:52;22.90;76.90
20672;DHT22;10495;50.922;4.760;2022-08-04T05:33:24;23.00;77.40
20672;DHT22;10495;50.922;4.760;2022-08-04T05:35:57;23.10;76.60
20672;DHT22;10495;50.922;4.760;2022-08-04T05:38:28;23.20;76.60
20672;DHT22;10495;50.922;4.760;2022-08-04T05:40:55;23.40;76.60
20672;DHT22;10495;50.922;4.760;2022-08-04T05:43:22;23.60;76.20
20672;DHT22;10495;50.922;4.760;2022-08-04T05:45:49;23.90;75.90
20672;DHT22;10495;50.922;4.760;2022-08-04T05:48:16;24.40;75.00
20672;DHT22;10495;50.922;4.760;2022-08-04T05:50:43;24.80;73.80
20672;DHT22;10495;50.922;4.760;2022-08-04T05:53:09;25.30;72.20
20672;DHT22;10495;50.922;4.760;2022-08-04T05:55:35;25.60;71.20
20672;DHT22;10495;50.922;4.760;2022-08-04T05:58:01;25.90;70.50
20672;DHT22;10495;50.922;4.760;2022-08-04T06:00:28;26.10;68.30
20672;DHT22;10495;50.922;4.760;2022-08-04T06:02:55;26.30;68.20
20672;DHT22;10495;50.922;4.760;2022-08-04T06:05:23;26.50;67.80
20672;DHT22;10495;50.922;4.760;2022-08-04T06:07:49;26.60;66.60
20672;DHT22;10495;50.922;4.760;2022-08-04T06:10:15;26.80;66.00
20672;DHT22;10495;50.922;4.760;2022-08-04T06:12:45;27.10;65.50
20672;DHT22;10495;50.922;4.760;2022-08-04T06:15:16;27.30;63.30
20672;DHT22;10495;50.922;4.760;2022-08-04T06:17:48;27.40;62.10
20672;DHT22;10495;50.922;4.760;2022-08-04T06:20:15;27.60;62.90
20672;DHT22;10495;50.922;4.760;2022-08-04T06:22:44;27.60;61.00
20672;DHT22;10495;50.922;4.760;2022-08-04T06:25:14;27.80;60.70
20672;DHT22;10495;50.922;4.760;2022-08-04T06:27:42;27.90;59.40
20672;DHT22;10495;50.922;4.760;2022-08-04T06:30:08;27.90;59.80
20672;DHT22;10495;50.922;4.760;2022-08-04T06:32:42;27.80;59.40
20672;DHT22;10495;50.922;4.760;2022-08-04T06:35:22;27.60;59.40
20672;DHT22;10495;50.922;4.760;2022-08-04T06:37:49;27.50;59.60
20672;DHT22;10495;50.922;4.760;2022-08-04T06:40:19;27.50;59.90
20672;DHT22;10495;50.922;4.760;2022-08-04T06:42:45;27.30;59.80
20672;DHT22;10495;50.922;4.760;2022-08-04T06:45:13;27.30;59.90
20672;DHT22;10495;50.922;4.760;2022-08-04T06:47:40;27.10;60.00
20672;DHT22;10495;50.922;4.760;2022-08-04T06:50:08;27.00;60.00
20672;DHT22;10495;50.922;4.760;2022-08-04T06:52:34;26.80;61.10
20672;DHT22;10495;50.922;4.760;2022-08-04T06:55:02;26.90;61.40
20672;DHT22;10495;50.922;4.760;2022-08-04T06:57:29;26.90;61.60
20672;DHT22;10495;50.922;4.760;2022-08-04T07:00:10;27.00;63.10
20672;DHT22;10495;50.922;4.760;2022-08-04T07:02:52;27.40;62.90
20672;DHT22;10495;50.922;4.760;2022-08-04T07:05:18;27.90;60.90
20672;DHT22;10495;50.922;4.760;2022-08-04T07:07:45;28.40;60.00
20672;DHT22;10495;50.922;4.760;2022-08-04T07:10:11;28.90;59.60
20672;DHT22;10495;50.922;4.760;2022-08-04T07:12:39;29.40;58.90
20672;DHT22;10495;50.922;4.760;2022-08-04T07:15:06;29.40;58.40
20672;DHT22;10495;50.922;4.760;2022-08-04T07:17:35;29.70;57.50
20672;DHT22;10495;50.922;4.760;2022-08-04T07:20:04;29.90;57.80
20672;DHT22;10495;50.922;4.760;2022-08-04T07:22:30;30.00;57.00
20672;DHT22;10495;50.922;4.760;2022-08-04T07:24:57;30.00;56.80
20672;DHT22;10495;50.922;4.760;2022-08-04T07:27:24;30.10;57.60
20672;DHT22;10495;50.922;4.760;2022-08-04T07:29:50;30.40;56.30
20672;DHT22;10495;50.922;4.760;2022-08-04T07:32:18;30.80;57.10
20672;DHT22;10495;50.922;4.760;2022-08-04T07:34:46;31.00;56.00
20672;DHT22;10495;50.922;4.760;2022-08-04T07:37:13;31.00;55.40
20672;DHT22;10495;50.922;4.760;2022-08-04T07:39:39;31.00;55.60
20672;DHT22;10495;50.922;4.760;2022-08-04T07:42:05;30.80;55.70
20672;DHT22;10495;50.922;4.760;2022-08-04T07:44:32;30.30;55.60
20672;DHT22;10495;50.922;4.760;2022-08-04T07:47:02;30.10;55.80
20672;DHT22;10495;50.922;4.760;2022-08-04T07:49:28;29.90;56.10
20672;DHT22;10495;50.922;4.760;2022-08-04T07:51:54;29.80;56.20
20672;DHT22;10495;50.922;4.760;2022-08-04T07:54:20;29.50;56.00
20672;DHT22;10495;50.922;4.760;2022-08-04T07:56:46;29.40;56.70
20672;DHT22;10495;50.922;4.760;2022-08-04T07:59:17;29.20;56.80
20672;DHT22;10495;50.922;4.760;2022-08-04T08:01:43;29.00;56.60
20672;DHT22;10495;50.922;4.760;2022-08-04T08:04:10;28.90;56.70
20672;DHT22;10495;50.922;4.760;2022-08-04T08:06:37;28.80;57.00
20672;DHT22;10495;50.922;4.760;2022-08-04T08:09:14;28.70;57.40
20672;DHT22;10495;50.922;4.760;2022-08-04T08:11:42;28.60;57.60
20672;DHT22;10495;50.922;4.760;2022-08-04T08:14:08;28.40;57.50
20672;DHT22;10495;50.922;4.760;2022-08-04T08:16:35;28.00;57.70
20672;DHT22;10495;50.922;4.760;2022-08-04T08:19:01;28.10;58.10
20672;DHT22;10495;50.922;4.760;2022-08-04T08:21:28;27.70;58.20
20672;DHT22;10495;50.922;4.760;2022-08-04T08:23:54;27.50;58.10
20672;DHT22;10495;50.922;4.760;2022-08-04T08:26:20;27.70;58.50
20672;DHT22;10495;50.922;4.760;2022-08-04T08:28:46;27.80;58.80
20672;DHT22;10495;50.922;4.760;2022-08-04T08:31:11;28.10;58.80
20672;DHT22;10495;50.922;4.760;2022-08-04T08:33:37;28.30;58.60
20672;DHT22;10495;50.922;4.760;2022-08-04T08:36:22;28.40;58.50
20672;DHT22;10495;50.922;4.760;2022-08-04T08:39:01;28.40;58.50
20672;DHT22;10495;50.922;4.760;2022-08-04T08:44:42;28.40;58.20
20672;DHT22;10495;50.922;4.760;2022-08-04T08:56:16;28.00;58.30
20672;DHT22;10495;50.922;4.760;2022-08-04T09:15:14;27.80;59.00
20672;DHT22;10495;50.922;4.760;2022-08-04T09:17:58;27.70;59.10
20672;DHT22;10495;50.922;4.760;2022-08-04T09:20:39;27.70;59.10
20672;DHT22;10495;50.922;4.760;2022-08-04T09:26:05;27.50;59.30
20672;DHT22;10495;50.922;4.760;2022-08-04T09:31:23;27.20;59.70
20672;DHT22;10495;50.922;4.760;2022-08-04T09:34:08;27.10;59.70
20672;DHT22;10495;50.922;4.760;2022-08-04T09:36:55;26.90;60.80
20672;DHT22;10495;50.922;4.760;2022-08-04T09:44:59;26.30;65.20
20672;DHT22;10495;50.922;4.760;2022-08-04T09:53:05;26.20;66.00
20672;DHT22;10495;50.922;4.760;2022-08-04T09:58:13;26.10;68.00
20672;DHT22;10495;50.922;4.760;2022-08-04T10:00:47;26.20;70.30
20672;DHT22;10495;50.922;4.760;2022-08-04T10:03:14;26.70;70.20
20672;DHT22;10495;50.922;4.760;2022-08-04T10:11:48;27.30;67.30
20672;DHT22;10495;50.922;4.760;2022-08-04T10:15:18;27.50;67.80
20672;DHT22;10495;50.922;4.760;2022-08-04T10:22:57;28.00;68.10
20672;DHT22;10495;50.922;4.760;2022-08-04T10:28:22;28.90;63.00
20672;DHT22;10495;50.922;4.760;2022-08-04T10:30:57;29.40;65.50
20672;DHT22;10495;50.922;4.760;2022-08-04T10:33:49;29.90;62.10
20672;DHT22;10495;50.922;4.760;2022-08-04T10:36:17;30.00;59.20
20672;DHT22;10495;50.922;4.760;2022-08-04T10:38:55;29.50;58.90
20672;DHT22;10495;50.922;4.760;2022-08-04T10:41:29;29.40;59.40
20672;DHT22;10495;50.922;4.760;2022-08-04T10:44:04;29.40;59.60
20672;DHT22;10495;50.922;4.760;2022-08-04T10:46:38;29.60;59.40
20672;DHT22;10495;50.922;4.760;2022-08-04T10:49:09;29.60;58.80
20672;DHT22;10495;50.922;4.760;2022-08-04T10:51:58;29.60;58.70
20672;DHT22;10495;50.922;4.760;2022-08-04T10:57:35;29.30;59.70
20672;DHT22;10495;50.922;4.760;2022-08-04T11:00:05;29.30;59.50
20672;DHT22;10495;50.922;4.760;2022-08-04T11:07:52;29.00;60.00
20672;DHT22;10495;50.922;4.760;2022-08-04T11:10:22;28.80;60.30
20672;DHT22;10495;50.922;4.760;2022-08-04T11:12:54;28.80;59.90
20672;DHT22;10495;50.922;4.760;2022-08-04T11:15:24;29.00;60.00
20672;DHT22;10495;50.922;4.760;2022-08-04T11:17:58;28.70;59.70
20672;DHT22;10495;50.922;4.760;2022-08-04T11:20:43;28.40;59.80
20672;DHT22;10495;50.922;4.760;2022-08-04T11:23:15;28.40;59.80
20672;DHT22;10495;50.922;4.760;2022-08-04T11:26:14;28.60;60.00
20672;DHT22;10495;50.922;4.760;2022-08-04T11:29:11;28.80;61.10
20672;DHT22;10495;50.922;4.760;2022-08-04T11:31:44;28.70;60.50
20672;DHT22;10495;50.922;4.760;2022-08-04T11:34:25;28.40;60.40
20672;DHT22;10495;50.922;4.760;2022-08-04T11:39:41;28.80;59.80
20672;DHT22;10495;50.922;4.760;2022-08-04T11:44:50;28.60;59.20
20672;DHT22;10495;50.922;4.760;2022-08-04T11:47:30;28.50;59.60
20672;DHT22;10495;50.922;4.760;2022-08-04T11:52:29;29.00;60.00
20672;DHT22;10495;50.922;4.760;2022-08-04T11:54:57;29.10;59.60
20672;DHT22;10495;50.922;4.760;2022-08-04T11:57:24;28.80;58.30
20672;DHT22;10495;50.922;4.760;2022-08-04T11:59:51;28.70;58.50
20672;DHT22;10495;50.922;4.760;2022-08-04T12:05:07;28.40;59.00
20672;DHT22;10495;50.922;4.760;2022-08-04T12:13:48;28.20;59.80
20672;DHT22;10495;50.922;4.760;2022-08-04T12:16:28;28.10;59.80
20672;DHT22;10495;50.922;4.760;2022-08-04T12:19:00;28.40;60.00
20672;DHT22;10495;50.922;4.760;2022-08-04T12:21:38;28.50;59.80
20672;DHT22;10495;50.922;4.760;2022-08-04T12:24:25;28.30;59.40
20672;DHT22;10495;50.922;4.760;2022-08-04T12:26:55;28.10;59.80
20672;DHT22;10495;50.922;4.760;2022-08-04T12:29:22;28.40;60.00
20672;DHT22;10495;50.922;4.760;2022-08-04T12:31:54;28.60;59.50
20672;DHT22;10495;50.922;4.760;2022-08-04T12:34:57;28.60;59.00
20672;DHT22;10495;50.922;4.760;2022-08-04T12:37:45;28.80;59.30
20672;DHT22;10495;50.922;4.760;2022-08-04T12:40:16;28.50;58.90
20672;DHT22;10495;50.922;4.760;2022-08-04T12:43:09;28.60;59.70
20672;DHT22;10495;50.922;4.760;2022-08-04T12:45:45;28.80;59.10
20672;DHT22;10495;50.922;4.760;2022-08-04T12:48:13;29.00;58.60
20672;DHT22;10495;50.922;4.760;2022-08-04T12:50:39;28.80;58.00
20672;DHT22;10495;50.922;4.760;2022-08-04T12:53:12;28.80;57.60
20672;DHT22;10495;50.922;4.760;2022-08-04T12:55:44;28.80;58.40
20672;DHT22;10495;50.922;4.760;2022-08-04T12:58:15;29.00;58.50
20672;DHT22;10495;50.922;4.760;2022-08-04T13:00:43;28.90;58.10
20672;DHT22;10495;50.922;4.760;2022-08-04T13:03:14;29.00;58.30
20672;DHT22;10495;50.922;4.760;2022-08-04T13:05:41;29.20;58.20
20672;DHT22;10495;50.922;4.760;2022-08-04T13:08:08;29.10;57.60
20672;DHT22;10495;50.922;4.760;2022-08-04T13:10:39;29.00;57.40
20672;DHT22;10495;50.922;4.760;2022-08-04T13:13:12;29.00;57.00
20672;DHT22;10495;50.922;4.760;2022-08-04T13:15:39;29.10;57.50
20672;DHT22;10495;50.922;4.760;2022-08-04T13:18:08;29.20;57.00
20672;DHT22;10495;50.922;4.760;2022-08-04T13:20:36;29.20;56.60
20672;DHT22;10495;50.922;4.760;2022-08-04T13:23:05;29.30;56.80
20672;DHT22;10495;50.922;4.760;2022-08-04T13:25:31;29.30;56.90
20672;DHT22;10495;50.922;4.760;2022-08-04T13:27:59;29.30;56.80
20672;DHT22;10495;50.922;4.760;2022-08-04T13:30:27;29.40;56.50
20672;DHT22;10495;50.922;4.760;2022-08-04T13:32:58;29.20;56.60
20672;DHT22;10495;50.922;4.760;2022-08-04T13:35:25;29.40;56.50
20672;DHT22;10495;50.922;4.760;2022-08-04T13:37:54;29.50;56.60
20672;DHT22;10495;50.922;4.760;2022-08-04T13:40:24;29.70;57.20
20672;DHT22;10495;50.922;4.760;2022-08-04T13:42:51;29.80;56.40
20672;DHT22;10495;50.922;4.760;2022-08-04T13:45:22;29.80;56.60
20672;DHT22;10495;50.922;4.760;2022-08-04T13:47:49;29.90;56.50
20672;DHT22;10495;50.922;4.760;2022-08-04T13:50:22;29.80;56.30
20672;DHT22;10495;50.922;4.760;2022-08-04T13:52:52;30.10;56.60
20672;DHT22;10495;50.922;4.760;2022-08-04T13:55:27;30.20;56.70
20672;DHT22;10495;50.922;4.760;2022-08-04T13:58:08;30.40;56.70
20672;DHT22;10495;50.922;4.760;2022-08-04T14:01:22;30.50;56.40
20672;DHT22;10495;50.922;4.760;2022-08-04T14:03:37;30.70;55.80
20672;DHT22;10495;50.922;4.760;2022-08-04T14:11:36;30.70;55.60
20672;DHT22;10495;50.922;4.760;2022-08-04T14:17:11;30.70;55.80
20672;DHT22;10495;50.922;4.760;2022-08-04T14:19:58;30.60;56.40
20672;DHT22;10495;50.922;4.760;2022-08-04T14:25:12;30.70;55.70
20672;DHT22;10495;50.922;4.760;2022-08-04T14:27:49;30.80;55.70
20672;DHT22;10495;50.922;4.760;2022-08-04T14:30:33;31.00;55.70
20672;DHT22;10495;50.922;4.760;2022-08-04T14:33:05;31.00;55.50
20672;DHT22;10495;50.922;4.760;2022-08-04T14:35:32;30.70;55.00
20672;DHT22;10495;50.922;4.760;2022-08-04T14:38:03;30.10;54.90
20672;DHT22;10495;50.922;4.760;2022-08-04T14:40:32;30.20;55.10
20672;DHT22;10495;50.922;4.760;2022-08-04T14:42:59;30.30;55.20
20672;DHT22;10495;50.922;4.760;2022-08-04T14:45:36;29.90;55.30
20672;DHT22;10495;50.922;4.760;2022-08-04T14:48:15;29.80;55.10
20672;DHT22;10495;50.922;4.760;2022-08-04T14:50:45;29.70;55.40
20672;DHT22;10495;50.922;4.760;2022-08-04T14:53:14;29.70;55.60
20672;DHT22;10495;50.922;4.760;2022-08-04T14:55:48;29.80;55.40
20672;DHT22;10495;50.922;4.760;2022-08-04T14:58:29;30.00;55.50
20672;DHT22;10495;50.922;4.760;2022-08-04T15:01:00;30.00;55.70
20672;DHT22;10495;50.922;4.760;2022-08-04T15:03:30;30.30;55.60
20672;DHT22;10495;50.922;4.760;2022-08-04T15:05:58;30.60;55.30
20672;DHT22;10495;50.922;4.760;2022-08-04T15:08:25;30.30;54.40
20672;DHT22;10495;50.922;4.760;2022-08-04T15:10:52;30.30;54.50
20672;DHT22;10495;50.922;4.760;2022-08-04T15:13:26;30.10;54.10
20672;DHT22;10495;50.922;4.760;2022-08-04T15:15:51;30.00;54.10
20672;DHT22;10495;50.922;4.760;2022-08-04T15:18:18;29.90;54.10
20672;DHT22;10495;50.922;4.760;2022-08-04T15:20:45;29.80;54.10
20672;DHT22;10495;50.922;4.760;2022-08-04T15:23:10;30.00;54.70
20672;DHT22;10495;50.922;4.760;2022-08-04T15:25:40;29.60;54.30
20672;DHT22;10495;50.922;4.760;2022-08-04T15:28:11;29.60;54.40
20672;DHT22;10495;50.922;4.760;2022-08-04T15:30:38;29.50;54.80
20672;DHT22;10495;50.922;4.760;2022-08-04T15:33:05;29.60;54.90
20672;DHT22;10495;50.922;4.760;2022-08-04T15:35:31;29.80;54.60
20672;DHT22;10495;50.922;4.760;2022-08-04T15:40:55;30.00;54.10
20672;DHT22;10495;50.922;4.760;2022-08-04T15:49:23;29.60;54.60
20672;DHT22;10495;50.922;4.760;2022-08-04T15:52:08;29.50;54.60
20672;DHT22;10495;50.922;4.760;2022-08-04T15:54:34;29.40;54.60
20672;DHT22;10495;50.922;4.760;2022-08-04T15:57:02;29.50;55.20
20672;DHT22;10495;50.922;4.760;2022-08-04T16:00:05;29.50;55.00
20672;DHT22;10495;50.922;4.760;2022-08-04T16:02:35;29.40;55.00
20672;DHT22;10495;50.922;4.760;2022-08-04T16:07:52;29.50;54.60
20672;DHT22;10495;50.922;4.760;2022-08-04T16:10:42;29.50;54.80
20672;DHT22;10495;50.922;4.760;2022-08-04T16:13:13;29.80;55.20
20672;DHT22;10495;50.922;4.760;2022-08-04T16:15:51;29.70;55.00
20672;DHT22;10495;50.922;4.760;2022-08-04T16:20:50;29.30;55.20
20672;DHT22;10495;50.922;4.760;2022-08-04T16:26:03;29.50;54.70
20672;DHT22;10495;50.922;4.760;2022-08-04T16:28:39;29.60;54.80
20672;DHT22;10495;50.922;4.760;2022-08-04T16:31:08;29.50;54.40
20672;DHT22;10495;50.922;4.760;2022-08-04T16:33:34;29.60;54.90
20672;DHT22;10495;50.922;4.760;2022-08-04T16:36:00;29.60;55.20
20672;DHT22;10495;50.922;4.760;2022-08-04T16:38:26;29.70;54.50
20672;DHT22;10495;50.922;4.760;2022-08-04T16:40:59;29.70;54.90
20672;DHT22;10495;50.922;4.760;2022-08-04T16:43:29;29.80;54.60
20672;DHT22;10495;50.922;4.760;2022-08-04T16:46:00;29.50;54.90
20672;DHT22;10495;50.922;4.760;2022-08-04T16:48:34;29.50;54.90
20672;DHT22;10495;50.922;4.760;2022-08-04T16:51:02;29.50;54.80
20672;DHT22;10495;50.922;4.760;2022-08-04T16:56:06;30.10;54.70
20672;DHT22;10495;50.922;4.760;2022-08-04T16:58:34;30.10;54.30
20672;DHT22;10495;50.922;4.760;2022-08-04T17:01:14;30.30;53.80
20672;DHT22;10495;50.922;4.760;2022-08-04T17:03:49;30.40;53.40
20672;DHT22;10495;50.922;4.760;2022-08-04T17:06:15;30.30;53.50
20672;DHT22;10495;50.922;4.760;2022-08-04T17:08:42;30.00;54.20
20672;DHT22;10495;50.922;4.760;2022-08-04T17:11:08;29.80;54.30
20672;DHT22;10495;50.922;4.760;2022-08-04T17:13:40;29.80;54.20
20672;DHT22;10495;50.922;4.760;2022-08-04T17:16:11;29.90;54.10
20672;DHT22;10495;50.922;4.760;2022-08-04T17:18:46;29.90;53.90
20672;DHT22;10495;50.922;4.760;2022-08-04T17:21:15;29.80;53.80
20672;DHT22;10495;50.922;4.760;2022-08-04T17:23:43;29.70;54.00
20672;DHT22;10495;50.922;4.760;2022-08-04T17:26:17;29.40;53.90
20672;DHT22;10495;50.922;4.760;2022-08-04T17:28:49;29.50;54.30
20672;DHT22;10495;50.922;4.760;2022-08-04T17:31:15;29.50;54.00
20672;DHT22;10495;50.922;4.760;2022-08-04T17:33:48;29.80;53.70
20672;DHT22;10495;50.922;4.760;2022-08-04T17:36:16;29.50;54.00
20672;DHT22;10495;50.922;4.760;2022-08-04T17:38:44;29.50;54.10
20672;DHT22;10495;50.922;4.760;2022-08-04T17:41:12;29.40;54.50
20672;DHT22;10495;50.922;4.760;2022-08-04T17:44:08;29.40;54.10
20672;DHT22;10495;50.922;4.760;2022-08-04T17:46:37;29.30;54.20
20672;DHT22;10495;50.922;4.760;2022-08-04T17:51:49;29.20;54.10
20672;DHT22;10495;50.922;4.760;2022-08-04T17:54:19;29.10;54.10
20672;DHT22;10495;50.922;4.760;2022-08-04T17:56:47;29.00;54.60
20672;DHT22;10495;50.922;4.760;2022-08-04T18:02:00;28.50;54.70
20672;DHT22;10495;50.922;4.760;2022-08-04T18:04:33;28.20;54.80
20672;DHT22;10495;50.922;4.760;2022-08-04T18:12:25;27.60;55.10
20672;DHT22;10495;50.922;4.760;2022-08-04T18:14:54;27.50;55.30
20672;DHT22;10495;50.922;4.760;2022-08-04T18:17:37;27.30;55.30
20672;DHT22;10495;50.922;4.760;2022-08-04T18:20:06;27.10;55.60
20672;DHT22;10495;50.922;4.760;2022-08-04T18:22:33;27.00;55.60
20672;DHT22;10495;50.922;4.760;2022-08-04T18:24:58;27.00;55.50
20672;DHT22;10495;50.922;4.760;2022-08-04T18:27:26;27.00;55.50
20672;DHT22;10495;50.922;4.760;2022-08-04T18:29:53;27.00;55.40
20672;DHT22;10495;50.922;4.760;2022-08-04T18:32:19;26.70;55.50
20672;DHT22;10495;50.922;4.760;2022-08-04T18:34:48;26.60;55.70
20672;DHT22;10495;50.922;4.760;2022-08-04T18:37:15;26.50;55.60
20672;DHT22;10495;50.922;4.760;2022-08-04T18:39:40;26.30;55.70
20672;DHT22;10495;50.922;4.760;2022-08-04T18:42:06;26.10;55.90
20672;DHT22;10495;50.922;4.760;2022-08-04T18:44:33;26.20;56.00
20672;DHT22;10495;50.922;4.760;2022-08-04T18:46:59;26.20;55.70
20672;DHT22;10495;50.922;4.760;2022-08-04T18:49:25;26.10;55.80
20672;DHT22;10495;50.922;4.760;2022-08-04T18:51:52;26.30;55.40
20672;DHT22;10495;50.922;4.760;2022-08-04T18:54:19;26.30;55.40
20672;DHT22;10495;50.922;4.760;2022-08-04T18:56:45;26.20;55.30
20672;DHT22;10495;50.922;4.760;2022-08-04T18:59:11;26.20;55.20
20672;DHT22;10495;50.922;4.760;2022-08-04T19:01:37;25.90;55.90
20672;DHT22;10495;50.922;4.760;2022-08-04T19:04:03;25.80;55.80
20672;DHT22;10495;50.922;4.760;2022-08-04T19:06:29;25.50;56.30
20672;DHT22;10495;50.922;4.760;2022-08-04T19:08:55;25.50;56.50
20672;DHT22;10495;50.922;4.760;2022-08-04T19:11:21;25.40;56.20
20672;DHT22;10495;50.922;4.760;2022-08-04T19:13:46;25.20;56.40
20672;DHT22;10495;50.922;4.760;2022-08-04T19:16:12;25.20;57.00
20672;DHT22;10495;50.922;4.760;2022-08-04T19:18:38;25.00;57.00
20672;DHT22;10495;50.922;4.760;2022-08-04T19:21:04;25.00;57.20
20672;DHT22;10495;50.922;4.760;2022-08-04T19:23:29;25.10;57.20
20672;DHT22;10495;50.922;4.760;2022-08-04T19:25:57;25.30;58.30
20672;DHT22;10495;50.922;4.760;2022-08-04T19:28:24;25.00;59.00
20672;DHT22;10495;50.922;4.760;2022-08-04T19:30:50;24.90;59.90
20672;DHT22;10495;50.922;4.760;2022-08-04T19:33:16;24.70;60.80
20672;DHT22;10495;50.922;4.760;2022-08-04T19:35:41;24.70;60.20
20672;DHT22;10495;50.922;4.760;2022-08-04T19:38:08;24.70;61.70
20672;DHT22;10495;50.922;4.760;2022-08-04T19:40:36;24.70;62.30
20672;DHT22;10495;50.922;4.760;2022-08-04T19:43:02;24.70;63.10
20672;DHT22;10495;50.922;4.760;2022-08-04T19:45:28;24.70;63.80
20672;DHT22;10495;50.922;4.760;2022-08-04T19:47:53;24.60;65.20
20672;DHT22;10495;50.922;4.760;2022-08-04T19:50:19;24.80;65.40
20672;DHT22;10495;50.922;4.760;2022-08-04T19:52:45;24.70;65.40
20672;DHT22;10495;50.922;4.760;2022-08-04T19:55:11;24.70;65.70
20672;DHT22;10495;50.922;4.760;2022-08-04T19:57:37;24.70;65.30
20672;DHT22;10495;50.922;4.760;2022-08-04T20:00:08;24.70;65.60
20672;DHT22;10495;50.922;4.760;2022-08-04T20:02:35;24.50;67.00
20672;DHT22;10495;50.922;4.760;2022-08-04T20:05:00;24.40;67.50
20672;DHT22;10495;50.922;4.760;2022-08-04T20:07:26;24.30;67.90
20672;DHT22;10495;50.922;4.760;2022-08-04T20:09:51;24.20;68.60
20672;DHT22;10495;50.922;4.760;2022-08-04T20:12:17;24.10;69.10
20672;DHT22;10495;50.922;4.760;2022-08-04T20:14:43;23.90;69.90
20672;DHT22;10495;50.922;4.760;2022-08-04T20:17:08;23.70;72.20
20672;DHT22;10495;50.922;4.760;2022-08-04T20:19:34;23.60;73.50
20672;DHT22;10495;50.922;4.760;2022-08-04T20:21:59;23.40;73.80
20672;DHT22;10495;50.922;4.760;2022-08-04T20:24:25;23.30;74.10
20672;DHT22;10495;50.922;4.760;2022-08-04T20:26:51;23.30;73.90